»·PEaware :: N215AF KMYF-KSNA

N215AF :: KMYF-KSNA

FLIGHT INFORMATION

Flight Status: Arrived
Operator: Privately registered:
United States
More flights under this callsign
Pilot: Paul D. (20310)
Aircraft: CESSNA 172 SKYHAWK
(C172)
More flights by this aircraft type
Origin: KMYF Montgomery
United States
Destination: KSNA John Wayne-Orange Co
United States
More flights between these airports :: More routes between these airports
Route: +
File this flight plan on PilotEdge
Remarks:
Altitude:
(Current/Filed)
0ft
Speed:
(Current/Filed)
0kts
Departed: 02-Dec-18 03:42 PM
Arrived: 02-Dec-18 04:30 PM
Distance/Time
Traveled:
63nm/0:48
Distance/Time
To Go:
Arrived

Flight Plot

Page will automatically refresh every two minutes.


Map Options




Map Legend


Flown Route
Filed Route
Departure Airport
Arrival Airport
Navaid (VOR, NDB)
Fix

Horizontal Profiles

Position Reports

Time Latitude Longitude Heading Altitude Ground
Speed
02-Dec-18 15:36 32.810579 -117.138871 177 417ft 0kts
02-Dec-18 15:37 32.810714 -117.138293 20 417ft 10kts
02-Dec-18 15:38 32.812727 -117.136562 108 419ft 15kts
02-Dec-18 15:39 32.811568 -117.131954 64 420ft 18kts
02-Dec-18 15:40 32.812006 -117.131294 337 422ft 0kts
02-Dec-18 15:41 32.812007 -117.131294 337 422ft 0kts
02-Dec-18 15:42 32.812006 -117.131294 337 422ft 0kts
02-Dec-18 15:43 32.812006 -117.131294 337 422ft 0kts
02-Dec-18 15:44 32.813329 -117.132355 296 422ft 35kts
02-Dec-18 15:45 32.820290 -117.150121 290 1143ft 69kts
02-Dec-18 15:46 32.827883 -117.168583 300 1971ft 70kts
02-Dec-18 15:47 32.835327 -117.187808 307 2814ft 68kts
02-Dec-18 15:48 32.847927 -117.201838 315 3579ft 68kts
02-Dec-18 15:49 32.860288 -117.221549 300 3765ft 90kts
02-Dec-18 15:50 32.871834 -117.246185 299 4122ft 80kts
02-Dec-18 15:51 32.887099 -117.270374 330 3705ft 108kts
02-Dec-18 15:52 32.913473 -117.282310 342 3027ft 118kts
02-Dec-18 15:53 32.936502 -117.291273 337 3152ft 82kts
02-Dec-18 15:54 32.958159 -117.303412 330 3175ft 96kts
02-Dec-18 15:55 32.980526 -117.320530 329 3384ft 105kts
02-Dec-18 15:56 33.006412 -117.338344 316 3793ft 99kts
02-Dec-18 15:57 33.028919 -117.360512 340 4019ft 107kts
02-Dec-18 15:58 33.053261 -117.376402 321 4537ft 97kts
02-Dec-18 15:59 33.076204 -117.398857 333 4608ft 107kts
02-Dec-18 16:00 33.102224 -117.416378 326 4665ft 107kts
02-Dec-18 16:01 33.126002 -117.433967 325 4595ft 121kts
02-Dec-18 16:02 33.156736 -117.449763 336 4280ft 118kts
02-Dec-18 16:03 33.183901 -117.467185 322 4416ft 107kts
02-Dec-18 16:04 33.210086 -117.486975 329 4485ft 105kts
02-Dec-18 16:05 33.236345 -117.504851 325 4545ft 111kts
02-Dec-18 16:06 33.259947 -117.526340 316 4718ft 108kts
02-Dec-18 16:07 33.282630 -117.547353 316 4876ft 112kts
02-Dec-18 16:08 33.303339 -117.573197 314 4922ft 106kts
02-Dec-18 16:09 33.328594 -117.593832 322 4755ft 111kts
02-Dec-18 16:10 33.353161 -117.612322 322 4842ft 106kts
02-Dec-18 16:11 33.377753 -117.634962 321 4089ft 121kts
02-Dec-18 16:12 33.402382 -117.651997 323 3261ft 123kts
02-Dec-18 16:13 33.427912 -117.671177 325 2313ft 124kts
02-Dec-18 16:14 33.449733 -117.687992 320 2359ft 110kts
02-Dec-18 16:15 33.468047 -117.706066 315 2710ft 103kts
02-Dec-18 16:16 33.484277 -117.719392 327 3231ft 94kts
02-Dec-18 16:17 33.500451 -117.727995 331 3774ft 87kts
02-Dec-18 16:18 33.519003 -117.736656 329 3959ft 93kts
02-Dec-18 16:19 33.519003 -117.736656 329 3959ft 93kts
02-Dec-18 16:20 33.531030 -117.742982 327 3915ft 84kts
02-Dec-18 16:21 33.548535 -117.750511 341 3592ft 94kts
02-Dec-18 16:22 33.566309 -117.754549 324 3355ft 92kts
02-Dec-18 16:23 33.580285 -117.765581 320 3325ft 80kts
02-Dec-18 16:24 33.595954 -117.777985 318 2962ft 102kts
02-Dec-18 16:25 33.612020 -117.792480 315 2682ft 101kts
02-Dec-18 16:26 33.627670 -117.808829 312 2285ft 105kts
02-Dec-18 16:27 33.643589 -117.828037 314 1476ft 115kts
02-Dec-18 16:28 33.657523 -117.845453 306 1063ft 104kts
02-Dec-18 16:29 33.673777 -117.852343 23 921ft 105kts
02-Dec-18 16:30 33.687623 -117.841527 38 1093ft 80kts
02-Dec-18 16:31 33.696624 -117.848104 257 769ft 68kts
02-Dec-18 16:32 33.687516 -117.859317 207 248ft 63kts
02-Dec-18 16:33 33.677707 -117.865715 216 60ft 30kts
02-Dec-18 16:34 33.676871 -117.865588 116 60ft 0kts

Navigation Log

Ident Type
Flight plan parsing failed, navigation log unavailable